Time;durP1;ratioP1;P1;durP2;ratioP2;P2;SDS_P1;SDS_P2;PMS_P1;PMS_P2;Temp;Humidity;BMP_temperature;BMP_pressure;BME280_temperature;BME280_humidity;BME280_pressure;Samples;Min_cycle;Max_cycle;Signal;HPM_P1;HPM_P2
2022/09/29 00:02:18;;;;;;;0.10;0.10;;;8.00;99.90;;;;;;5033969;28;20242;-78
2022/09/29 00:04:44;;;;;;;0.83;0.53;;;8.00;99.90;;;;;;5034709;28;20555;-78
2022/09/29 00:07:09;;;;;;;0.10;0.10;;;8.00;99.90;;;;;;5031872;28;20641;-78
2022/09/29 00:09:35;;;;;;;0.10;0.10;;;7.90;99.90;;;;;;5035107;28;20519;-78
2022/09/29 00:12:01;;;;;;;0.07;0.07;;;7.80;99.90;;;;;;5032161;28;20299;-78
2022/09/29 00:14:26;;;;;;;0.10;0.10;;;7.80;99.90;;;;;;5033088;28;20204;-78
2022/09/29 00:16:52;;;;;;;0.00;0.00;;;7.60;99.90;;;;;;5032741;28;20228;-78
2022/09/29 00:19:18;;;;;;;0.10;0.10;;;7.60;99.90;;;;;;5034259;28;20194;-78
2022/09/29 00:21:44;;;;;;;0.10;0.10;;;7.60;99.90;;;;;;5032601;28;20213;-78
2022/09/29 00:24:09;;;;;;;0.10;0.10;;;7.50;99.90;;;;;;5034780;28;20574;-78
2022/09/29 00:26:35;;;;;;;0.23;0.23;;;7.60;99.90;;;;;;5031840;28;20299;-78
2022/09/29 00:29:00;;;;;;;0.10;0.10;;;7.50;99.90;;;;;;5033185;28;20221;-78
2022/09/29 00:31:31;;;;;;;0.10;0.10;;;7.40;99.90;;;;;;5032941;28;20661;-78
2022/09/29 00:33:56;;;;;;;0.20;0.20;;;7.50;99.90;;;;;;5028076;28;20198;-78
2022/09/29 00:36:22;;;;;;;0.10;0.10;;;7.50;99.90;;;;;;5028890;28;20214;-78
2022/09/29 00:38:51;;;;;;;0.20;0.20;;;7.60;99.90;;;;;;5029320;28;20188;-78
2022/09/29 00:41:23;;;;;;;0.20;0.20;;;7.50;99.90;;;;;;5033824;28;20229;-78
2022/09/29 00:43:58;;;;;;;0.10;0.10;;;7.30;99.90;;;;;;5031297;28;20177;-78
2022/09/29 00:46:42;;;;;;;0.10;0.10;;;7.20;99.90;;;;;;5033827;28;20208;-78
2022/09/29 00:49:16;;;;;;;0.10;0.10;;;7.20;99.90;;;;;;5031069;28;20180;-78
2022/09/29 00:51:47;;;;;;;0.13;0.13;;;7.10;99.90;;;;;;5032118;28;20214;-78
2022/09/29 00:54:14;;;;;;;0.10;0.10;;;7.20;99.90;;;;;;5030400;28;20673;-78
2022/09/29 00:56:42;;;;;;;0.40;0.40;;;7.10;99.90;;;;;;5031952;28;20220;-78
2022/09/29 00:59:15;;;;;;;0.33;0.20;;;7.30;99.90;;;;;;5032098;28;20286;-78
2022/09/29 01:01:41;;;;;;;0.33;0.33;;;7.20;99.90;;;;;;5030488;28;20688;-78
2022/09/29 01:04:13;;;;;;;0.10;0.10;;;7.20;99.90;;;;;;5028269;28;20280;-78
2022/09/29 01:06:43;;;;;;;0.10;0.10;;;7.10;99.90;;;;;;5029978;28;20301;-78
2022/09/29 01:09:13;;;;;;;0.40;0.30;;;7.20;99.90;;;;;;5029849;28;20221;-78
2022/09/29 01:11:39;;;;;;;0.10;0.10;;;7.10;99.90;;;;;;5029900;28;20557;-78
2022/09/29 01:14:08;;;;;;;0.30;0.17;;;7.00;99.90;;;;;;5027351;28;20194;-78
2022/09/29 01:16:36;;;;;;;0.20;0.20;;;6.90;99.90;;;;;;5024684;28;20216;-78
2022/09/29 01:19:07;;;;;;;0.10;0.10;;;6.90;99.90;;;;;;5027213;28;20195;-78
2022/09/29 01:22:07;;;;;;;0.23;0.23;;;7.00;99.90;;;;;;5030056;28;20218;-78
2022/09/29 01:24:55;;;;;;;0.10;0.10;;;7.10;99.90;;;;;;5025620;28;21700;-78
2022/09/29 01:27:51;;;;;;;0.10;0.10;;;7.20;99.90;;;;;;5029011;28;20210;-78
2022/09/29 01:30:45;;;;;;;0.03;0.03;;;7.10;99.90;;;;;;5031058;28;20182;-78
2022/09/29 01:33:11;;;;;;;0.10;0.10;;;6.90;99.90;;;;;;5026257;28;20205;-78
2022/09/29 01:36:07;;;;;;;0.20;0.20;;;6.80;99.90;;;;;;5030303;28;20264;-78
2022/09/29 01:38:53;;;;;;;0.10;0.10;;;6.70;99.90;;;;;;5031489;28;20177;-78
2022/09/29 01:41:42;;;;;;;0.07;0.07;;;6.50;99.90;;;;;;5030561;28;20209;-78
2022/09/29 01:44:17;;;;;;;0.20;0.20;;;6.70;99.90;;;;;;5028969;28;20183;-78
2022/09/29 01:46:51;;;;;;;0.10;0.10;;;6.90;99.90;;;;;;5028412;28;20202;-78
2022/09/29 01:49:19;;;;;;;0.87;0.20;;;7.00;99.90;;;;;;5028994;28;20184;-78
2022/09/29 01:51:53;;;;;;;0.10;0.10;;;7.00;99.90;;;;;;5029100;28;20264;-78
2022/09/29 01:54:25;;;;;;;0.13;0.13;;;6.90;99.90;;;;;;5032459;28;20302;-78
2022/09/29 01:57:08;;;;;;;0.17;0.17;;;6.90;99.90;;;;;;5033139;28;20213;-78
2022/09/29 01:59:52;;;;;;;0.10;0.10;;;7.00;99.90;;;;;;5033160;28;21108;-78
2022/09/29 02:02:29;;;;;;;0.30;0.30;;;7.00;99.90;;;;;;5034304;28;20207;-78
2022/09/29 02:04:58;;;;;;;0.10;0.10;;;7.00;99.90;;;;;;5034575;28;20670;-78
2022/09/29 02:07:35;;;;;;;0.00;0.00;;;6.90;99.90;;;;;;5033326;28;20285;-78
2022/09/29 02:10:08;;;;;;;0.10;0.10;;;6.60;99.90;;;;;;5034713;28;20179;-78
2022/09/29 02:12:36;;;;;;;0.10;0.10;;;6.40;99.90;;;;;;5028709;28;20802;-78
2022/09/29 02:15:05;;;;;;;0.10;0.10;;;6.50;99.90;;;;;;5030188;28;20309;-78
2022/09/29 02:17:35;;;;;;;0.10;0.10;;;6.60;99.90;;;;;;5029947;28;20785;-78
2022/09/29 02:20:02;;;;;;;0.10;0.10;;;6.60;99.90;;;;;;5033827;28;20182;-79
2022/09/29 02:22:27;;;;;;;0.23;0.20;;;6.50;99.90;;;;;;5034842;28;20231;-78
2022/09/29 02:24:57;;;;;;;0.10;0.10;;;6.50;99.90;;;;;;5029570;28;20186;-78
2022/09/29 02:27:25;;;;;;;0.10;0.10;;;6.40;99.90;;;;;;5034329;28;20263;-79
2022/09/29 02:29:51;;;;;;;0.10;0.10;;;6.50;99.90;;;;;;5032999;28;20182;-78
2022/09/29 02:32:18;;;;;;;0.10;0.10;;;6.40;99.90;;;;;;5036241;28;20269;-78
2022/09/29 02:34:47;;;;;;;0.10;0.10;;;6.40;99.90;;;;;;5036355;28;20702;-78
2022/09/29 02:37:28;;;;;;;0.20;0.20;;;6.40;99.90;;;;;;5033955;28;20206;-79
2022/09/29 02:40:01;;;;;;;0.00;0.00;;;6.30;99.90;;;;;;5034220;28;20188;-79
2022/09/29 02:42:32;;;;;;;0.10;0.10;;;6.20;99.90;;;;;;5034208;28;20264;-78
2022/09/29 02:45:09;;;;;;;0.60;0.30;;;6.20;99.90;;;;;;5035580;28;20182;-78
2022/09/29 02:47:54;;;;;;;0.10;0.10;;;6.30;99.90;;;;;;5035412;28;20755;-79
2022/09/29 02:50:35;;;;;;;0.10;0.10;;;6.30;99.90;;;;;;5034281;28;20186;-79
2022/09/29 02:53:23;;;;;;;0.10;0.10;;;6.40;99.90;;;;;;5032508;28;20182;-78
2022/09/29 02:56:13;;;;;;;0.00;0.00;;;6.50;99.90;;;;;;5034072;28;20266;-78
2022/09/29 02:59:05;;;;;;;0.10;0.10;;;6.70;99.90;;;;;;5033542;28;20190;-78
2022/09/29 03:01:31;;;;;;;0.10;0.10;;;6.60;99.90;;;;;;5035293;28;20209;-79
2022/09/29 03:03:58;;;;;;;0.10;0.10;;;6.70;99.90;;;;;;5035524;28;20548;-78
2022/09/29 03:06:23;;;;;;;0.10;0.10;;;6.70;99.90;;;;;;5032318;28;20210;-79
2022/09/29 03:08:49;;;;;;;0.10;0.10;;;6.80;99.90;;;;;;5033084;28;20178;-79
2022/09/29 03:11:14;;;;;;;0.00;0.00;;;6.70;99.90;;;;;;5034041;28;20186;-78
2022/09/29 03:13:40;;;;;;;0.10;0.10;;;6.60;99.90;;;;;;5036194;28;20205;-78
2022/09/29 03:16:06;;;;;;;0.53;0.47;;;6.60;99.90;;;;;;5032578;28;20224;-78
2022/09/29 03:18:31;;;;;;;0.50;0.37;;;6.80;99.90;;;;;;5029965;28;20241;-79
2022/09/29 03:20:57;;;;;;;0.00;0.00;;;6.90;99.90;;;;;;5032951;28;20209;-78
2022/09/29 03:23:22;;;;;;;0.13;0.13;;;6.90;99.90;;;;;;5035107;28;20212;-78
2022/09/29 03:25:48;;;;;;;0.20;0.20;;;6.70;99.90;;;;;;5035413;28;20285;-79
2022/09/29 03:28:15;;;;;;;0.10;0.10;;;6.80;99.90;;;;;;5032091;28;20190;-78
2022/09/29 03:30:41;;;;;;;0.10;0.10;;;6.80;99.90;;;;;;5036079;28;20671;-78
2022/09/29 03:33:06;;;;;;;0.27;0.27;;;6.90;99.90;;;;;;5033624;28;20186;-79
2022/09/29 03:35:32;;;;;;;0.10;0.10;;;7.00;99.90;;;;;;5035446;28;20185;-79
2022/09/29 03:37:59;;;;;;;0.10;0.10;;;7.00;99.90;;;;;;5028840;28;20193;-79
2022/09/29 03:40:25;;;;;;;0.20;0.20;;;7.10;99.90;;;;;;5033426;28;20214;-78
2022/09/29 03:42:50;;;;;;;0.00;0.00;;;7.20;99.90;;;;;;5033206;28;20259;-79
2022/09/29 03:45:16;;;;;;;0.10;0.10;;;7.30;99.90;;;;;;5034564;28;20190;-79
2022/09/29 03:47:41;;;;;;;0.10;0.10;;;7.40;99.90;;;;;;5033741;28;20301;-79
2022/09/29 03:50:07;;;;;;;0.40;0.30;;;7.40;99.90;;;;;;5034270;28;20178;-79
2022/09/29 03:52:33;;;;;;;0.10;0.10;;;7.40;99.90;;;;;;5033462;28;20300;-78
2022/09/29 03:54:58;;;;;;;0.07;0.07;;;7.50;99.90;;;;;;5035761;28;20217;-78
2022/09/29 03:57:24;;;;;;;0.17;0.17;;;7.40;99.90;;;;;;5032312;28;20301;-79
2022/09/29 03:59:49;;;;;;;0.20;0.20;;;7.30;99.90;;;;;;5034836;28;20186;-79
2022/09/29 04:02:17;;;;;;;0.20;0.20;;;7.30;99.90;;;;;;5034550;28;20206;-79
2022/09/29 04:04:43;;;;;;;0.20;0.20;;;7.30;99.90;;;;;;5031980;28;21012;-79
2022/09/29 04:07:08;;;;;;;0.20;0.20;;;7.30;99.90;;;;;;5033913;28;20209;-78
2022/09/29 04:09:34;;;;;;;0.10;0.10;;;7.30;99.90;;;;;;5034184;28;20196;-79
2022/09/29 04:12:00;;;;;;;0.20;0.20;;;7.10;99.90;;;;;;5033083;28;20185;-79
2022/09/29 04:14:25;;;;;;;0.50;0.50;;;6.90;99.90;;;;;;5032493;28;20186;-78
2022/09/29 04:16:51;;;;;;;0.27;0.27;;;6.70;99.90;;;;;;5030913;28;20211;-78
2022/09/29 04:19:16;;;;;;;0.40;0.30;;;6.50;99.90;;;;;;5033987;28;20285;-79
2022/09/29 04:21:42;;;;;;;0.33;0.20;;;6.50;99.90;;;;;;5032881;28;20216;-79
2022/09/29 04:24:07;;;;;;;0.10;0.10;;;6.60;99.90;;;;;;5034261;28;20864;-79
2022/09/29 04:26:33;;;;;;;0.10;0.10;;;6.70;99.90;;;;;;5029742;28;20213;-79
2022/09/29 04:28:59;;;;;;;0.13;0.13;;;6.50;99.90;;;;;;5031452;28;20571;-78
2022/09/29 04:31:24;;;;;;;0.20;0.20;;;6.40;99.90;;;;;;5032468;28;20198;-78
2022/09/29 04:33:50;;;;;;;0.20;0.20;;;6.20;99.90;;;;;;5030901;28;21207;-78
2022/09/29 04:36:16;;;;;;;0.20;0.20;;;6.10;99.90;;;;;;5032615;28;20268;-78
2022/09/29 04:38:42;;;;;;;0.20;0.20;;;5.90;99.90;;;;;;5034046;28;20663;-79
2022/09/29 04:41:08;;;;;;;0.10;0.10;;;5.80;99.90;;;;;;5033466;28;20182;-78
2022/09/29 04:43:33;;;;;;;0.10;0.10;;;5.80;99.90;;;;;;5029251;28;20275;-79
2022/09/29 04:46:07;;;;;;;0.20;0.20;;;5.90;99.90;;;;;;5030523;28;21782;-79
2022/09/29 04:48:34;;;;;;;0.10;0.10;;;5.90;99.90;;;;;;5032695;28;20190;-79
2022/09/29 04:51:09;;;;;;;0.27;0.27;;;5.90;99.90;;;;;;5032553;28;20709;-79
2022/09/29 04:53:38;;;;;;;0.13;0.13;;;5.80;99.90;;;;;;5031796;28;20186;-78
2022/09/29 04:56:05;;;;;;;0.30;0.30;;;5.80;99.90;;;;;;5031742;28;20210;-78
2022/09/29 04:58:31;;;;;;;0.17;0.17;;;5.70;99.90;;;;;;5032379;28;20174;-78
2022/09/29 05:01:05;;;;;;;0.73;0.23;;;5.80;99.90;;;;;;5033234;28;20267;-78
2022/09/29 05:03:30;;;;;;;0.03;0.03;;;5.90;99.90;;;;;;5032071;28;20648;-79
2022/09/29 05:05:56;;;;;;;0.30;0.20;;;6.10;99.90;;;;;;5030196;28;20198;-78
2022/09/29 05:08:21;;;;;;;0.23;0.23;;;6.20;99.90;;;;;;5034075;28;20193;-78
2022/09/29 05:10:50;;;;;;;0.40;0.40;;;6.20;99.90;;;;;;5031877;28;20301;-78
2022/09/29 05:13:15;;;;;;;0.10;0.10;;;6.30;99.90;;;;;;5026350;28;20190;-78
2022/09/29 05:15:41;;;;;;;0.10;0.10;;;6.40;99.90;;;;;;5031130;28;20240;-80
2022/09/29 05:18:06;;;;;;;0.10;0.10;;;6.40;99.90;;;;;;5030402;28;20594;-78
2022/09/29 05:20:32;;;;;;;0.20;0.20;;;6.50;99.90;;;;;;5031989;28;20713;-78
2022/09/29 05:22:58;;;;;;;0.20;0.20;;;6.60;99.90;;;;;;5029482;28;20326;-79
2022/09/29 05:25:26;;;;;;;0.20;0.20;;;6.60;99.90;;;;;;5030927;28;20209;-79
2022/09/29 05:27:51;;;;;;;0.10;0.10;;;6.70;99.90;;;;;;5027036;28;20193;-79
2022/09/29 05:30:17;;;;;;;0.00;0.00;;;6.70;99.90;;;;;;5029597;28;20221;-79
2022/09/29 05:32:43;;;;;;;0.17;0.13;;;6.70;99.90;;;;;;5031058;28;20213;-78
2022/09/29 05:35:09;;;;;;;0.10;0.10;;;6.80;99.90;;;;;;5026055;28;20184;-78
2022/09/29 05:37:34;;;;;;;0.00;0.00;;;6.70;99.90;;;;;;5027190;28;20210;-79
2022/09/29 05:40:00;;;;;;;0.17;0.17;;;6.60;99.90;;;;;;5028825;28;20240;-78
2022/09/29 05:42:26;;;;;;;0.30;0.20;;;6.50;99.90;;;;;;5030638;28;20212;-79
2022/09/29 05:44:52;;;;;;;0.10;0.10;;;6.50;99.90;;;;;;5029903;28;20185;-79
2022/09/29 05:47:18;;;;;;;0.53;0.50;;;6.50;99.90;;;;;;5030902;28;20234;-79
2022/09/29 05:49:44;;;;;;;0.10;0.10;;;6.60;99.90;;;;;;5030133;28;20189;-78
2022/09/29 05:52:09;;;;;;;0.20;0.20;;;6.70;99.90;;;;;;5028821;28;20198;-79
2022/09/29 05:54:35;;;;;;;0.20;0.20;;;6.80;99.90;;;;;;5028238;28;20263;-78
2022/09/29 05:57:01;;;;;;;0.20;0.20;;;6.90;99.90;;;;;;5026557;28;20865;-78
2022/09/29 05:59:26;;;;;;;0.10;0.10;;;7.00;99.90;;;;;;5031077;28;20198;-79
2022/09/29 06:01:52;;;;;;;0.20;0.20;;;7.00;99.90;;;;;;5028780;28;20214;-78
2022/09/29 06:04:17;;;;;;;0.10;0.10;;;7.10;99.90;;;;;;5031813;28;20187;-79
2022/09/29 06:06:43;;;;;;;0.37;0.37;;;7.20;99.90;;;;;;5030996;28;20205;-79
2022/09/29 06:09:09;;;;;;;0.20;0.20;;;7.30;99.90;;;;;;5031410;28;20226;-79
2022/09/29 06:11:34;;;;;;;0.30;0.30;;;7.40;99.90;;;;;;5030176;28;20197;-79
2022/09/29 06:14:01;;;;;;;0.30;0.30;;;7.40;99.90;;;;;;5032557;28;20190;-79
2022/09/29 06:16:29;;;;;;;0.77;0.30;;;7.40;99.90;;;;;;5028120;28;20205;-79
2022/09/29 06:18:55;;;;;;;0.30;0.30;;;7.50;99.90;;;;;;5030383;28;20273;-79
2022/09/29 06:21:23;;;;;;;0.10;0.10;;;7.20;99.90;;;;;;5029997;28;20281;-79
2022/09/29 06:23:50;;;;;;;0.40;0.40;;;7.30;99.90;;;;;;5031991;28;20175;-78
2022/09/29 06:26:17;;;;;;;0.10;0.10;;;7.60;99.90;;;;;;5032034;28;20237;-81
2022/09/29 06:28:43;;;;;;;0.37;0.37;;;7.90;99.90;;;;;;5027574;28;20207;-79
2022/09/29 06:31:19;;;;;;;0.10;0.10;;;8.10;99.90;;;;;;5027805;28;20746;-79
2022/09/29 06:33:45;;;;;;;0.67;0.67;;;8.20;99.90;;;;;;5029344;28;20182;-79
2022/09/29 06:39:06;;;;;;;0.20;0.20;;;8.40;99.90;;;;;;5026190;28;20300;-78
2022/09/29 06:41:33;;;;;;;0.07;0.07;;;8.40;99.90;;;;;;5031597;28;20404;-80
2022/09/29 06:43:58;;;;;;;0.63;0.50;;;8.50;99.90;;;;;;5032595;28;20193;-79
2022/09/29 06:46:25;;;;;;;0.10;0.10;;;8.60;99.90;;;;;;5028883;28;20751;-78
2022/09/29 06:48:54;;;;;;;0.30;0.30;;;8.60;99.90;;;;;;5026929;28;20220;-78
2022/09/29 06:51:21;;;;;;;0.20;0.20;;;8.60;99.90;;;;;;5029009;28;20195;-78
2022/09/29 06:53:48;;;;;;;0.20;0.20;;;8.60;99.90;;;;;;5031501;28;20186;-81
2022/09/29 06:56:14;;;;;;;0.30;0.30;;;8.70;99.90;;;;;;5028045;28;20234;-78
2022/09/29 06:58:40;;;;;;;0.93;0.90;;;8.80;99.90;;;;;;5030037;28;20985;-79
2022/09/29 07:01:06;;;;;;;0.57;0.23;;;8.90;99.90;;;;;;5028466;28;20206;-78
2022/09/29 07:03:32;;;;;;;0.40;0.40;;;9.00;99.90;;;;;;5026465;28;20274;-78
2022/09/29 07:06:02;;;;;;;0.20;0.20;;;9.10;99.90;;;;;;5029834;28;20280;-79
2022/09/29 07:08:28;;;;;;;0.37;0.30;;;9.10;99.90;;;;;;5028651;28;20189;-78
2022/09/29 07:10:54;;;;;;;0.17;0.17;;;9.30;99.90;;;;;;5027903;28;20186;-80
2022/09/29 07:13:21;;;;;;;0.37;0.37;;;9.40;99.90;;;;;;5028688;28;20254;-81
2022/09/29 07:15:46;;;;;;;0.10;0.10;;;9.50;99.90;;;;;;5031583;28;20238;-81
2022/09/29 07:18:12;;;;;;;0.73;0.50;;;9.60;99.90;;;;;;5030122;28;20193;-79
2022/09/29 07:20:39;;;;;;;0.37;0.37;;;9.70;99.90;;;;;;5026307;28;20191;-79
2022/09/29 07:23:07;;;;;;;0.40;0.40;;;9.80;99.90;;;;;;5030086;28;20201;-78
2022/09/29 07:25:33;;;;;;;0.20;0.20;;;9.80;99.90;;;;;;5028723;28;20239;-78
2022/09/29 07:27:59;;;;;;;0.20;0.20;;;9.90;99.90;;;;;;5027179;28;20243;-78
2022/09/29 07:30:26;;;;;;;0.33;0.33;;;10.00;99.90;;;;;;5030742;28;20189;-82
2022/09/29 07:32:54;;;;;;;0.20;0.20;;;10.10;99.90;;;;;;5031092;28;20184;-79
2022/09/29 07:35:20;;;;;;;0.20;0.20;;;10.40;99.90;;;;;;5033066;28;20183;-79
2022/09/29 07:37:52;;;;;;;0.20;0.20;;;10.60;99.90;;;;;;5031038;28;20223;-78
2022/09/29 07:40:20;;;;;;;0.17;0.17;;;10.80;99.90;;;;;;5029842;28;20580;-82
2022/09/29 07:42:46;;;;;;;1.50;0.70;;;11.00;99.90;;;;;;5024994;28;20212;-79
2022/09/29 07:45:11;;;;;;;0.87;0.87;;;11.20;99.90;;;;;;5030845;28;20250;-81
2022/09/29 07:47:37;;;;;;;0.70;0.53;;;11.40;99.90;;;;;;5027491;28;21405;-79
2022/09/29 07:50:03;;;;;;;0.10;0.10;;;11.50;99.90;;;;;;5029520;28;20208;-79
2022/09/29 07:52:29;;;;;;;0.10;0.10;;;11.80;99.90;;;;;;5030955;28;20198;-79
2022/09/29 07:54:54;;;;;;;0.70;0.70;;;12.00;99.90;;;;;;5030295;28;20676;-79
2022/09/29 07:57:20;;;;;;;0.77;0.67;;;12.30;99.90;;;;;;5026128;28;20282;-80
2022/09/29 07:59:45;;;;;;;0.20;0.20;;;12.50;99.90;;;;;;5028386;28;20352;-79
2022/09/29 08:02:11;;;;;;;0.20;0.20;;;12.80;99.90;;;;;;5034918;28;20235;-79
2022/09/29 08:04:37;;;;;;;0.47;0.47;;;12.80;99.90;;;;;;5032289;28;20582;-79
2022/09/29 08:07:03;;;;;;;0.40;0.40;;;12.80;99.90;;;;;;5032354;28;20557;-79
2022/09/29 08:09:28;;;;;;;0.50;0.30;;;12.90;99.90;;;;;;5031645;28;20186;-79
2022/09/29 08:11:54;;;;;;;0.30;0.30;;;12.80;99.90;;;;;;5030333;28;20222;-79
2022/09/29 08:14:19;;;;;;;0.60;0.50;;;12.90;99.90;;;;;;5030149;28;20195;-79
2022/09/29 08:16:45;;;;;;;0.60;0.60;;;12.90;99.90;;;;;;5030378;28;20288;-80
2022/09/29 08:19:10;;;;;;;0.30;0.30;;;13.00;99.90;;;;;;5031905;28;20191;-80
2022/09/29 08:21:37;;;;;;;0.30;0.30;;;12.90;99.90;;;;;;5028473;28;20213;-80
2022/09/29 08:24:04;;;;;;;0.83;0.40;;;12.50;99.90;;;;;;5023963;28;20193;-79
2022/09/29 08:26:34;;;;;;;0.40;0.40;;;12.50;99.90;;;;;;5010241;28;20221;-79
2022/09/29 08:29:01;;;;;;;1.03;0.60;;;12.60;99.90;;;;;;5008198;28;20202;-79
2022/09/29 08:31:27;;;;;;;1.00;0.97;;;12.80;99.90;;;;;;5012978;28;20256;-80
2022/09/29 08:33:54;;;;;;;0.67;0.63;;;13.00;99.90;;;;;;5021355;28;20185;-80
2022/09/29 08:36:20;;;;;;;0.37;0.37;;;13.00;99.90;;;;;;5032048;28;20585;-79
2022/09/29 08:38:49;;;;;;;1.00;0.60;;;13.30;99.90;;;;;;5031618;28;20190;-79
2022/09/29 08:41:22;;;;;;;0.70;0.53;;;13.10;99.90;;;;;;5030789;28;20182;-79
2022/09/29 08:43:51;;;;;;;0.40;0.40;;;13.10;99.90;;;;;;5026983;28;20197;-80
2022/09/29 08:46:32;;;;;;;1.90;1.03;;;13.10;99.90;;;;;;5026578;28;20754;-80
2022/09/29 08:49:01;;;;;;;1.40;0.70;;;12.60;99.90;;;;;;5028139;28;20186;-79
2022/09/29 08:51:46;;;;;;;1.43;0.77;;;12.80;99.90;;;;;;5033157;28;20211;-79
2022/09/29 08:54:23;;;;;;;3.30;0.77;;;12.90;99.90;;;;;;5029339;28;20197;-80
2022/09/29 08:56:48;;;;;;;0.53;0.53;;;13.10;99.90;;;;;;5030174;28;20239;-79
2022/09/29 08:59:14;;;;;;;0.63;0.63;;;12.90;99.90;;;;;;5029161;28;20186;-80
2022/09/29 09:02:07;;;;;;;1.00;0.63;;;12.90;99.90;;;;;;5031925;28;20217;-79
2022/09/29 09:05:09;;;;;;;1.47;0.70;;;12.50;99.90;;;;;;5028187;28;20274;-78
2022/09/29 09:07:45;;;;;;;0.90;0.77;;;12.40;99.90;;;;;;5028759;28;20296;-78
2022/09/29 09:10:47;;;;;;;2.33;1.00;;;12.50;99.90;;;;;;5029378;28;20191;-79
2022/09/29 09:13:31;;;;;;;0.50;0.50;;;12.40;99.90;;;;;;5029153;28;20181;-79
2022/09/29 09:16:47;;;;;;;1.10;0.53;;;12.80;99.90;;;;;;5025330;28;20218;-78
2022/09/29 09:19:35;;;;;;;2.23;0.70;;;12.90;99.90;;;;;;5002137;28;20208;-79
2022/09/29 09:22:28;;;;;;;2.10;0.83;;;13.00;99.90;;;;;;5031466;28;20218;-79
2022/09/29 09:25:00;;;;;;;8.13;1.20;;;12.50;99.90;;;;;;5028235;28;20191;-79
2022/09/29 09:27:32;;;;;;;1.10;0.80;;;12.80;99.90;;;;;;5030334;28;20296;-79
2022/09/29 09:30:11;;;;;;;1.50;1.47;;;12.70;99.90;;;;;;5031719;28;20269;-79
2022/09/29 09:32:45;;;;;;;0.40;0.40;;;12.70;99.90;;;;;;5029281;28;20244;-79
2022/09/29 09:35:42;;;;;;;1.10;0.57;;;13.20;99.90;;;;;;5030730;28;20190;-79
2022/09/29 09:38:36;;;;;;;0.77;0.77;;;13.20;99.90;;;;;;5029447;28;20204;-79
2022/09/29 09:41:02;;;;;;;0.40;0.40;;;13.70;99.90;;;;;;5029840;28;20247;-79
2022/09/29 09:43:37;;;;;;;0.30;0.27;;;14.00;99.90;;;;;;5029452;28;20218;-80
2022/09/29 09:46:12;;;;;;;0.47;0.30;;;14.20;99.90;;;;;;5028887;28;21264;-80
2022/09/29 09:48:42;;;;;;;0.40;0.40;;;14.40;99.90;;;;;;5029184;28;20178;-80
2022/09/29 09:51:37;;;;;;;1.03;0.77;;;14.60;99.90;;;;;;5032323;28;20251;-80
2022/09/29 09:54:14;;;;;;;1.93;1.07;;;13.70;99.90;;;;;;5014562;28;20255;-79
2022/09/29 09:57:02;;;;;;;2.23;1.17;;;12.80;99.90;;;;;;5031056;28;20214;-79
2022/09/29 09:59:43;;;;;;;1.10;0.97;;;13.10;99.90;;;;;;5031118;28;20237;-80
2022/09/29 10:02:18;;;;;;;1.83;1.23;;;13.90;99.90;;;;;;5031008;28;20642;-80
2022/09/29 10:04:48;;;;;;;0.93;0.87;;;14.30;99.90;;;;;;5031016;28;20213;-80
2022/09/29 10:07:14;;;;;;;0.93;0.80;;;14.50;99.90;;;;;;5034024;28;20209;-80
2022/09/29 10:09:39;;;;;;;1.07;1.07;;;13.40;99.90;;;;;;5029666;28;20693;-80
2022/09/29 10:12:13;;;;;;;0.83;0.83;;;13.50;99.90;;;;;;5031593;28;20206;-80
2022/09/29 10:14:41;;;;;;;0.73;0.63;;;14.00;99.90;;;;;;5029629;28;20259;-79
2022/09/29 10:17:12;;;;;;;0.67;0.67;;;14.60;99.90;;;;;;5034928;28;20241;-80
2022/09/29 10:19:58;;;;;;;1.33;0.70;;;14.90;99.90;;;;;;5036176;28;20196;-80
2022/09/29 10:22:26;;;;;;;0.70;0.70;;;15.30;99.90;;;;;;5033435;28;20620;-79
2022/09/29 10:24:56;;;;;;;0.50;0.50;;;15.60;99.90;;;;;;5033275;28;20181;-79
2022/09/29 10:27:27;;;;;;;1.27;1.10;;;15.70;99.90;;;;;;5032515;28;20210;-80
2022/09/29 10:29:53;;;;;;;0.80;0.63;;;15.00;99.90;;;;;;5031817;28;20203;-79
2022/09/29 10:32:35;;;;;;;1.90;1.07;;;15.40;99.90;;;;;;5033915;28;20183;-79
2022/09/29 10:35:13;;;;;;;1.23;1.13;;;15.90;99.90;;;;;;5033107;28;20275;-79
2022/09/29 10:37:45;;;;;;;0.43;0.43;;;16.50;99.90;;;;;;5032500;28;20581;-79
2022/09/29 10:40:10;;;;;;;1.73;1.63;;;17.00;99.90;;;;;;5033283;28;20190;-79
2022/09/29 10:42:38;;;;;;;0.80;0.67;;;16.90;99.90;;;;;;5034668;28;20212;-79
2022/09/29 10:45:20;;;;;;;1.90;1.00;;;17.00;99.90;;;;;;5034010;28;20195;-79
2022/09/29 10:47:59;;;;;;;1.17;1.17;;;16.40;99.90;;;;;;5029872;28;20208;-79
2022/09/29 10:50:29;;;;;;;2.63;1.10;;;16.20;99.90;;;;;;5033037;28;20274;-79
2022/09/29 10:53:03;;;;;;;1.03;1.03;;;16.10;99.90;;;;;;5030461;28;20270;-78
2022/09/29 10:55:32;;;;;;;1.20;1.10;;;15.90;99.90;;;;;;5033529;28;20186;-79
2022/09/29 10:58:02;;;;;;;0.80;0.80;;;15.60;99.90;;;;;;5029713;28;20287;-79
2022/09/29 11:00:33;;;;;;;1.77;0.90;;;15.90;99.90;;;;;;5033733;28;20188;-79
2022/09/29 11:03:41;;;;;;;1.13;1.13;;;15.70;99.90;;;;;;5033222;28;20208;-79
2022/09/29 11:06:10;;;;;;;0.67;0.67;;;16.10;99.90;;;;;;5020443;28;20246;-79
2022/09/29 11:09:06;;;;;;;1.20;0.63;;;16.20;99.90;;;;;;5028845;28;20176;-79
2022/09/29 11:11:38;;;;;;;0.40;0.40;;;16.30;99.90;;;;;;5044733;28;20181;-79
2022/09/29 11:14:04;;;;;;;1.00;1.00;;;15.50;99.90;;;;;;5032223;28;20662;-79
2022/09/29 11:16:33;;;;;;;0.90;0.90;;;15.40;99.90;;;;;;5033135;28;20222;-79
2022/09/29 11:19:09;;;;;;;1.53;1.43;;;15.40;99.90;;;;;;5033578;28;20181;-79
2022/09/29 11:21:41;;;;;;;1.70;1.07;;;14.50;99.90;;;;;;5033456;28;20184;-79
2022/09/29 11:24:12;;;;;;;0.87;0.83;;;15.20;99.90;;;;;;5031888;28;20197;-80
2022/09/29 11:26:59;;;;;;;0.73;0.73;;;15.50;99.90;;;;;;5029702;28;20217;-79
2022/09/29 11:29:41;;;;;;;0.47;0.47;;;15.50;99.90;;;;;;5034163;28;20282;-79
2022/09/29 11:32:29;;;;;;;0.70;0.67;;;15.90;99.90;;;;;;5030179;28;20536;-79
2022/09/29 11:35:09;;;;;;;0.73;0.73;;;15.80;99.90;;;;;;5033656;28;20255;-78
2022/09/29 11:37:46;;;;;;;1.67;1.03;;;15.10;99.90;;;;;;5032214;28;20208;-79
2022/09/29 11:40:42;;;;;;;1.13;1.00;;;15.20;99.90;;;;;;5031151;28;21037;-78
2022/09/29 11:43:33;;;;;;;0.80;0.80;;;15.70;99.90;;;;;;5031126;28;20209;-79
2022/09/29 11:46:30;;;;;;;0.87;0.87;;;16.20;99.90;;;;;;5032589;28;20214;-79
2022/09/29 11:49:15;;;;;;;0.73;0.73;;;16.40;99.90;;;;;;5029360;28;20201;-79
2022/09/29 11:51:59;;;;;;;1.47;0.80;;;16.50;99.90;;;;;;5032554;28;20206;-79
2022/09/29 11:54:33;;;;;;;0.83;0.83;;;16.10;99.90;;;;;;5034897;28;20260;-79
2022/09/29 11:57:19;;;;;;;1.13;0.90;;;16.00;99.90;;;;;;5030441;28;20570;-79
2022/09/29 11:59:56;;;;;;;1.53;0.73;;;15.80;99.90;;;;;;5028174;28;20264;-79
2022/09/29 12:02:45;;;;;;;0.40;0.40;;;16.00;99.90;;;;;;5030645;28;20327;-78
2022/09/29 12:05:41;;;;;;;0.47;0.40;;;16.30;99.90;;;;;;5030044;28;20265;-79
2022/09/29 12:08:19;;;;;;;0.93;0.93;;;16.40;99.90;;;;;;5033372;28;20248;-79
2022/09/29 12:11:12;;;;;;;1.40;0.70;;;16.80;99.90;;;;;;5031458;28;20727;-79
2022/09/29 12:13:52;;;;;;;1.00;0.73;;;17.10;99.90;;;;;;5032867;28;20187;-78
2022/09/29 12:16:26;;;;;;;2.07;0.97;;;17.30;99.90;;;;;;5034389;28;20199;-79
2022/09/29 12:19:01;;;;;;;1.33;1.23;;;16.40;99.90;;;;;;5034349;28;20220;-78
2022/09/29 12:21:51;;;;;;;2.40;2.20;;;16.10;99.90;;;;;;5031417;28;20189;-79
2022/09/29 12:24:40;;;;;;;0.90;0.80;;;16.50;99.90;;;;;;5033236;28;20656;-79
2022/09/29 12:27:36;;;;;;;1.87;0.93;;;16.80;99.90;;;;;;5034828;28;20220;-79
2022/09/29 12:30:17;;;;;;;1.00;1.00;;;17.10;99.90;;;;;;5036226;28;20587;-79
2022/09/29 12:33:13;;;;;;;1.07;0.90;;;16.30;99.90;;;;;;5036427;28;20194;-79
2022/09/29 12:39:41;;;;;;;0.30;0.30;;;16.30;99.90;;;;;;5036606;28;20196;-79
2022/09/29 12:42:16;;;;;;;0.97;0.97;;;16.30;99.90;;;;;;5037439;28;20209;-79
2022/09/29 12:45:11;;;;;;;0.87;0.87;;;16.80;99.90;;;;;;5035623;28;20195;-79
2022/09/29 12:47:56;;;;;;;0.50;0.47;;;16.00;99.90;;;;;;5035345;28;20204;-79
2022/09/29 12:50:38;;;;;;;0.87;0.70;;;16.30;99.90;;;;;;5038900;28;20215;-79
2022/09/29 12:53:16;;;;;;;0.77;0.77;;;16.70;99.90;;;;;;5036947;28;20269;-78
2022/09/29 12:56:11;;;;;;;0.43;0.43;;;16.90;99.90;;;;;;5038151;28;20185;-79
2022/09/29 12:58:44;;;;;;;1.23;0.57;;;17.10;99.90;;;;;;5009102;28;20191;-78
2022/09/29 13:01:25;;;;;;;0.70;0.70;;;17.20;99.90;;;;;;5034657;28;20185;-79
2022/09/29 13:04:06;;;;;;;2.20;0.37;;;17.30;99.90;;;;;;5035219;28;20234;-79
2022/09/29 13:07:27;;;;;;;0.83;0.63;;;17.40;99.90;;;;;;5033481;28;20205;-78
2022/09/29 13:10:04;;;;;;;0.60;0.60;;;16.90;99.90;;;;;;4973443;28;20249;-79
2022/09/29 13:12:43;;;;;;;0.47;0.47;;;17.00;99.90;;;;;;5034716;28;20217;-79
2022/09/29 13:15:26;;;;;;;0.50;0.50;;;17.10;99.90;;;;;;5036412;28;20178;-79
2022/09/29 13:18:11;;;;;;;2.03;0.63;;;17.10;99.90;;;;;;5037189;28;20553;-79
2022/09/29 13:21:22;;;;;;;0.63;0.63;;;17.10;99.90;;;;;;5033114;28;20200;-78
2022/09/29 13:24:17;;;;;;;0.60;0.50;;;17.00;99.90;;;;;;5001207;28;20236;-79
2022/09/29 13:27:12;;;;;;;0.33;0.33;;;17.10;99.90;;;;;;5032501;28;20213;-79
2022/09/29 13:30:05;;;;;;;0.40;0.20;;;17.40;99.90;;;;;;5033089;28;20330;-79